createdAt,value
2017-11-13T00:00:25.689Z,0
2017-11-13T00:01:06.012Z,0
2017-11-13T00:01:46.456Z,0
2017-11-13T00:02:26.884Z,0
2017-11-13T00:03:07.346Z,0
2017-11-13T00:03:47.775Z,0
2017-11-13T00:04:28.192Z,0
2017-11-13T00:05:08.591Z,0
2017-11-13T00:05:48.972Z,0
2017-11-13T00:06:29.375Z,0
2017-11-13T00:07:09.791Z,0
2017-11-13T00:07:50.218Z,0
2017-11-13T00:08:30.624Z,0
2017-11-13T00:09:10.984Z,0
2017-11-13T00:09:51.431Z,0
2017-11-13T00:10:31.864Z,0
2017-11-13T00:11:12.279Z,0
2017-11-13T00:11:52.731Z,0
2017-11-13T00:12:33.170Z,0
2017-11-13T00:13:13.581Z,0
2017-11-13T00:13:54.025Z,0
2017-11-13T00:14:34.425Z,0
2017-11-13T00:15:14.859Z,0
2017-11-13T00:15:55.314Z,0
2017-11-13T00:16:35.709Z,0
2017-11-13T00:17:16.344Z,0
2017-11-13T00:17:56.552Z,0
2017-11-13T00:18:36.937Z,0
2017-11-13T00:19:17.325Z,0
2017-11-13T00:19:57.735Z,0
2017-11-13T00:20:38.176Z,0
2017-11-13T00:21:18.674Z,0
2017-11-13T00:21:59.075Z,0
2017-11-13T00:22:39.501Z,0
2017-11-13T00:23:19.947Z,0
2017-11-13T00:24:00.326Z,0
2017-11-13T00:24:40.752Z,0
2017-11-13T00:25:21.218Z,0
2017-11-13T00:26:01.575Z,0
2017-11-13T00:26:42.174Z,0
2017-11-13T00:27:22.520Z,0
2017-11-13T00:28:03.033Z,0
2017-11-13T00:28:43.369Z,0
2017-11-13T00:29:23.800Z,0
2017-11-13T00:30:04.271Z,0
2017-11-13T00:30:44.626Z,0
2017-11-13T00:31:25.065Z,0
2017-11-13T00:32:05.564Z,0
2017-11-13T00:32:45.908Z,0
2017-11-13T00:33:26.302Z,0
2017-11-13T00:34:06.693Z,0
2017-11-13T00:34:47.184Z,0
2017-11-13T00:35:27.671Z,0
2017-11-13T00:36:08.052Z,0
2017-11-13T00:36:48.488Z,0
2017-11-13T00:37:28.878Z,0
2017-11-13T00:38:09.314Z,0
2017-11-13T00:38:49.735Z,0
2017-11-13T00:39:30.197Z,0
2017-11-13T00:40:10.621Z,0
2017-11-13T00:40:50.957Z,0
2017-11-13T00:41:31.349Z,0
2017-11-13T00:42:11.821Z,0
2017-11-13T00:42:52.181Z,0
2017-11-13T00:43:32.670Z,0
2017-11-13T00:44:13.046Z,0
2017-11-13T00:44:53.503Z,0
2017-11-13T00:45:33.870Z,0
2017-11-13T00:46:14.335Z,0
2017-11-13T00:46:54.851Z,0
2017-11-13T00:47:35.325Z,0
2017-11-13T00:48:15.784Z,0
2017-11-13T00:48:56.145Z,0
2017-11-13T00:49:36.666Z,0
2017-11-13T00:50:16.907Z,0
2017-11-13T00:50:57.381Z,0
2017-11-13T00:51:37.922Z,0
2017-11-13T00:52:18.252Z,0
2017-11-13T00:52:58.732Z,0
2017-11-13T00:53:39.171Z,0
2017-11-13T00:54:19.536Z,0
2017-11-13T00:55:00.111Z,0
2017-11-13T00:55:40.375Z,0
2017-11-13T00:56:20.809Z,0
2017-11-13T00:57:01.232Z,0
2017-11-13T00:57:41.643Z,0
2017-11-13T00:58:22.173Z,0
2017-11-13T00:59:02.561Z,0
2017-11-13T00:59:43.011Z,0
2017-11-13T01:00:23.388Z,0
2017-11-13T01:01:03.888Z,0
2017-11-13T01:01:44.260Z,0
2017-11-13T01:02:24.723Z,0
2017-11-13T01:03:05.186Z,0
2017-11-13T01:03:45.524Z,0
2017-11-13T01:04:25.995Z,0
2017-11-13T01:05:06.548Z,0
2017-11-13T01:05:46.898Z,0
2017-11-13T01:06:27.318Z,0
2017-11-13T01:07:07.736Z,0
2017-11-13T01:07:48.101Z,0
2017-11-13T01:08:28.556Z,0
2017-11-13T01:09:08.932Z,0
2017-11-13T01:09:49.328Z,0
2017-11-13T01:10:29.718Z,0
2017-11-13T01:11:10.216Z,0
2017-11-13T01:11:50.576Z,0
2017-11-13T01:12:31.020Z,0
2017-11-13T01:13:11.392Z,0
2017-11-13T01:13:51.794Z,0
2017-11-13T01:14:32.261Z,0
2017-11-13T01:15:12.615Z,0
2017-11-13T01:15:53.105Z,0
2017-11-13T01:16:33.503Z,0
2017-11-13T01:17:13.899Z,0
2017-11-13T01:17:54.321Z,0
2017-11-13T01:18:34.736Z,0
2017-11-13T01:19:15.143Z,0
2017-11-13T01:19:55.659Z,0
2017-11-13T01:20:35.998Z,0
2017-11-13T01:21:16.431Z,0
2017-11-13T01:21:56.863Z,0
2017-11-13T01:22:37.267Z,0
2017-11-13T01:23:17.656Z,0
2017-11-13T01:23:58.104Z,0
2017-11-13T01:24:38.484Z,0
2017-11-13T01:25:18.989Z,0
2017-11-13T01:25:59.386Z,0
2017-11-13T01:26:39.781Z,0
2017-11-13T01:27:20.218Z,0
2017-11-13T01:28:00.672Z,0
2017-11-13T01:28:41.040Z,0
2017-11-13T01:29:21.474Z,0
2017-11-13T01:30:01.789Z,0
2017-11-13T01:30:42.287Z,0
2017-11-13T01:31:22.702Z,0
2017-11-13T01:32:03.108Z,0
2017-11-13T01:32:43.479Z,0
2017-11-13T01:33:23.940Z,0
2017-11-13T01:34:04.299Z,0
2017-11-13T01:34:44.711Z,0
2017-11-13T01:35:25.095Z,0
2017-11-13T01:36:05.516Z,0
2017-11-13T01:36:45.908Z,0
2017-11-13T01:37:26.269Z,0
2017-11-13T01:38:06.706Z,0
2017-11-13T01:38:47.196Z,0
2017-11-13T01:39:27.607Z,0
2017-11-13T01:40:08.032Z,0
2017-11-13T01:40:48.567Z,0
2017-11-13T01:41:29.054Z,0
2017-11-13T01:42:09.351Z,0
2017-11-13T01:42:49.834Z,0
2017-11-13T01:43:30.195Z,0
2017-11-13T01:44:10.644Z,0
2017-11-13T01:44:51.036Z,0
2017-11-13T01:45:31.506Z,0
2017-11-13T01:46:12.073Z,0
2017-11-13T01:46:52.301Z,0
2017-11-13T01:47:32.699Z,0
2017-11-13T01:48:13.129Z,0
2017-11-13T01:48:53.583Z,0
2017-11-13T01:49:33.973Z,0
2017-11-13T01:50:14.442Z,0
2017-11-13T01:50:54.816Z,0
2017-11-13T01:51:35.276Z,0
2017-11-13T01:52:15.727Z,0
2017-11-13T01:52:56.120Z,0
2017-11-13T01:53:36.603Z,0
2017-11-13T01:55:56.645Z,0
2017-11-13T01:56:38.685Z,0
2017-11-13T01:57:19.103Z,0
2017-11-13T01:57:59.598Z,0
2017-11-13T01:58:39.993Z,0
2017-11-13T01:59:20.422Z,0
2017-11-13T02:00:00.784Z,0
2017-11-13T02:00:41.176Z,0
2017-11-13T02:01:21.513Z,0
2017-11-13T02:02:02.051Z,0
2017-11-13T02:02:42.374Z,0
2017-11-13T02:03:22.710Z,0
2017-11-13T02:04:03.189Z,0
2017-11-13T02:04:43.526Z,0
2017-11-13T02:05:24.057Z,0
2017-11-13T02:06:04.618Z,0
2017-11-13T02:06:45.040Z,0
2017-11-13T02:07:25.454Z,0
2017-11-13T02:08:05.889Z,0
2017-11-13T02:08:46.237Z,0
2017-11-13T02:09:26.747Z,0
2017-11-13T02:10:07.140Z,0
2017-11-13T02:10:47.545Z,0
2017-11-13T02:11:27.988Z,0
2017-11-13T02:12:08.437Z,0
2017-11-13T02:12:48.965Z,0
2017-11-13T02:13:29.308Z,0
2017-11-13T02:14:09.692Z,0
2017-11-13T02:14:50.123Z,0
2017-11-13T02:15:30.527Z,0
2017-11-13T02:16:10.938Z,0
2017-11-13T02:16:51.456Z,0
2017-11-13T02:17:31.781Z,0
2017-11-13T02:18:12.250Z,0
2017-11-13T02:18:52.622Z,0
2017-11-13T02:19:33.080Z,0
2017-11-13T02:20:13.494Z,0
2017-11-13T02:20:53.920Z,0
2017-11-13T02:21:34.314Z,0
2017-11-13T02:22:14.737Z,0
2017-11-13T02:22:55.372Z,0
2017-11-13T02:23:35.527Z,0
2017-11-13T02:24:16.039Z,0
2017-11-13T02:24:56.552Z,0
2017-11-13T02:25:36.840Z,0
2017-11-13T02:26:17.357Z,0
2017-11-13T02:26:57.853Z,0
2017-11-13T02:27:38.122Z,0
2017-11-13T02:28:18.670Z,0
2017-11-13T02:28:59.145Z,0
2017-11-13T02:29:39.684Z,0
2017-11-13T02:30:20.052Z,0
2017-11-13T02:31:00.418Z,0
2017-11-13T02:31:40.816Z,0
2017-11-13T02:32:21.333Z,0
2017-11-13T02:33:01.721Z,0
2017-11-13T02:33:42.143Z,0
2017-11-13T02:34:22.549Z,0
2017-11-13T02:35:02.984Z,0
2017-11-13T02:35:43.364Z,0
2017-11-13T02:36:23.822Z,0
2017-11-13T02:37:04.258Z,0
2017-11-13T02:37:44.768Z,0
2017-11-13T02:38:25.166Z,0
2017-11-13T02:39:05.629Z,0
2017-11-13T02:39:46.047Z,0
2017-11-13T02:40:26.497Z,0
2017-11-13T02:41:06.970Z,0
2017-11-13T02:41:47.355Z,0
2017-11-13T02:42:27.762Z,0
2017-11-13T02:43:08.143Z,0
2017-11-13T02:43:48.588Z,0
2017-11-13T02:44:28.984Z,0
2017-11-13T02:45:09.362Z,0
2017-11-13T02:45:49.825Z,0
2017-11-13T02:46:30.229Z,0
2017-11-13T02:47:10.603Z,0
2017-11-13T02:47:51.079Z,0
2017-11-13T02:48:31.527Z,0
2017-11-13T02:49:11.894Z,0
2017-11-13T02:49:52.326Z,0
2017-11-13T02:50:32.722Z,0
2017-11-13T02:51:13.176Z,0
2017-11-13T02:51:53.611Z,0
2017-11-13T02:52:34.078Z,0
2017-11-13T02:53:14.480Z,0
2017-11-13T02:53:54.917Z,0
2017-11-13T02:54:35.336Z,0
2017-11-13T02:55:15.691Z,0
2017-11-13T02:55:56.102Z,0
2017-11-13T02:56:36.619Z,0
2017-11-13T02:57:16.891Z,0
2017-11-13T02:57:57.330Z,0
2017-11-13T02:58:37.785Z,0
2017-11-13T02:59:18.263Z,0
2017-11-13T02:59:58.656Z,0
2017-11-13T03:00:39.015Z,0
2017-11-13T03:01:19.433Z,0
2017-11-13T03:01:59.844Z,0
2017-11-13T03:02:40.199Z,0
2017-11-13T03:03:20.632Z,0
2017-11-13T03:04:01.000Z,0
2017-11-13T03:04:41.476Z,0
2017-11-13T03:05:21.818Z,0
2017-11-13T03:06:02.266Z,0
2017-11-13T03:06:42.666Z,0
2017-11-13T03:07:23.082Z,0
2017-11-13T03:08:03.540Z,0
2017-11-13T03:08:43.896Z,0
2017-11-13T03:09:24.334Z,0
2017-11-13T03:10:04.711Z,0
2017-11-13T03:10:45.110Z,0
2017-11-13T03:11:25.574Z,0
2017-11-13T03:12:05.970Z,0
2017-11-13T03:12:46.323Z,0
2017-11-13T03:13:26.717Z,0
2017-11-13T03:14:07.102Z,0
2017-11-13T03:14:47.568Z,0
2017-11-13T03:15:27.920Z,0
2017-11-13T03:16:08.378Z,0
2017-11-13T03:16:48.722Z,0
2017-11-13T03:17:29.173Z,0
2017-11-13T03:18:09.591Z,0
2017-11-13T03:18:50.307Z,0
2017-11-13T03:19:30.586Z,0
2017-11-13T03:20:11.030Z,0
2017-11-13T03:20:51.395Z,0
2017-11-13T03:21:31.757Z,0
2017-11-13T03:22:12.191Z,0
2017-11-13T03:22:52.609Z,0
2017-11-13T03:23:33.168Z,0
2017-11-13T03:24:13.532Z,0
2017-11-13T03:24:53.975Z,0
2017-11-13T03:25:34.349Z,0
2017-11-13T03:26:14.706Z,0
2017-11-13T03:26:55.187Z,0
2017-11-13T03:27:35.616Z,0
2017-11-13T03:28:16.059Z,0
2017-11-13T03:28:56.524Z,0
2017-11-13T03:29:36.915Z,0
2017-11-13T03:30:17.304Z,0
2017-11-13T03:30:57.860Z,0
2017-11-13T03:31:38.246Z,0
2017-11-13T03:32:18.674Z,0
2017-11-13T03:32:59.011Z,0
2017-11-13T03:33:39.408Z,0
2017-11-13T03:34:19.863Z,0
2017-11-13T03:35:00.273Z,0
2017-11-13T03:35:40.717Z,0
2017-11-13T03:36:21.117Z,0
2017-11-13T03:37:01.485Z,0
2017-11-13T03:37:41.910Z,0
2017-11-13T03:38:22.349Z,0
2017-11-13T03:39:02.784Z,0
2017-11-13T03:39:43.122Z,0
2017-11-13T03:40:23.632Z,0
2017-11-13T03:41:04.075Z,0
2017-11-13T03:41:44.461Z,0
2017-11-13T03:42:24.828Z,0
2017-11-13T03:43:05.219Z,0
2017-11-13T03:43:45.684Z,0
2017-11-13T03:44:26.078Z,0
2017-11-13T03:45:06.522Z,0
2017-11-13T03:45:47.009Z,0
2017-11-13T03:46:27.414Z,0
2017-11-13T03:47:07.805Z,0
2017-11-13T03:47:48.288Z,0
2017-11-13T03:48:28.688Z,0
2017-11-13T03:49:09.106Z,0
2017-11-13T03:49:49.525Z,0
2017-11-13T03:50:29.894Z,0
2017-11-13T03:51:10.342Z,0
2017-11-13T03:51:50.744Z,0
2017-11-13T03:52:31.189Z,0
2017-11-13T03:53:11.548Z,0
2017-11-13T03:53:52.054Z,0
2017-11-13T03:54:32.534Z,0
2017-11-13T03:55:12.985Z,0
2017-11-13T03:55:53.423Z,0
2017-11-13T03:56:33.939Z,0
2017-11-13T03:57:14.333Z,0
2017-11-13T03:57:54.777Z,0
2017-11-13T03:58:35.226Z,0
2017-11-13T03:59:15.635Z,0
2017-11-13T03:59:56.173Z,0
2017-11-13T04:00:36.700Z,0
2017-11-13T04:01:17.116Z,0
2017-11-13T04:41:41.199Z,0
2017-11-13T04:42:25.605Z,0
2017-11-13T04:43:05.873Z,0
2017-11-13T04:43:46.341Z,0
2017-11-13T04:44:26.725Z,0
2017-11-13T04:45:07.144Z,0
2017-11-13T04:45:47.457Z,0
2017-11-13T04:46:27.926Z,0
2017-11-13T04:47:08.354Z,0
2017-11-13T04:47:48.735Z,0
2017-11-13T04:48:29.220Z,0
2017-11-13T04:49:09.573Z,0
2017-11-13T04:49:50.029Z,0
2017-11-13T04:50:30.474Z,0
2017-11-13T04:51:10.857Z,0
2017-11-13T04:51:51.290Z,0
2017-11-13T04:52:31.798Z,0
2017-11-13T04:53:12.153Z,0
2017-11-13T04:53:52.544Z,0
2017-11-13T04:54:33.150Z,0
2017-11-13T04:55:13.521Z,0
2017-11-13T04:55:53.966Z,0
2017-11-13T04:56:34.341Z,0
2017-11-13T04:57:14.908Z,0
2017-11-13T04:57:55.233Z,0
2017-11-13T04:58:35.799Z,0
2017-11-13T04:59:16.219Z,0
2017-11-13T04:59:56.584Z,0
2017-11-13T05:00:37.027Z,0
2017-11-13T05:01:17.419Z,0
2017-11-13T05:01:57.906Z,0
2017-11-13T05:02:38.291Z,0
2017-11-13T05:03:18.702Z,0
2017-11-13T05:03:59.080Z,0
2017-11-13T05:04:39.472Z,0
2017-11-13T05:05:19.915Z,0
2017-11-13T05:06:00.380Z,0
2017-11-13T05:06:40.817Z,0
2017-11-13T05:07:21.204Z,0
2017-11-13T05:08:01.649Z,0
2017-11-13T05:08:42.060Z,0
2017-11-13T05:09:22.549Z,0
2017-11-13T05:10:02.963Z,0
2017-11-13T05:10:43.340Z,0
2017-11-13T05:11:23.767Z,0
2017-11-13T05:12:04.241Z,0
2017-11-13T05:12:44.663Z,0
2017-11-13T05:13:25.038Z,0
2017-11-13T05:14:05.603Z,0
2017-11-13T05:14:46.017Z,0
2017-11-13T05:15:26.470Z,0
2017-11-13T05:16:06.947Z,0
2017-11-13T05:16:47.400Z,0
2017-11-13T05:17:27.902Z,0
2017-11-13T05:18:08.374Z,0
2017-11-13T05:18:48.732Z,0
2017-11-13T05:19:29.224Z,0
2017-11-13T05:20:09.665Z,0
2017-11-13T05:20:50.036Z,0
2017-11-13T05:21:30.446Z,0
2017-11-13T05:22:10.801Z,0
2017-11-13T05:22:51.278Z,0
2017-11-13T05:23:31.835Z,0
2017-11-13T05:24:12.298Z,0
2017-11-13T05:24:52.675Z,0
2017-11-13T05:25:33.099Z,0
2017-11-13T05:26:13.560Z,0
2017-11-13T05:26:54.017Z,0
2017-11-13T05:27:34.390Z,0
2017-11-13T05:28:14.782Z,0
2017-11-13T05:28:55.190Z,0
2017-11-13T05:29:35.604Z,0
2017-11-13T05:30:16.028Z,0
2017-11-13T05:30:56.438Z,0
2017-11-13T05:31:36.771Z,0
2017-11-13T05:32:17.166Z,0
2017-11-13T05:32:57.719Z,0
2017-11-13T05:33:38.054Z,0
2017-11-13T05:34:18.515Z,0
2017-11-13T05:34:58.900Z,0
2017-11-13T05:35:39.310Z,0
2017-11-13T05:36:19.715Z,0
2017-11-13T05:37:00.253Z,0
2017-11-13T05:37:40.657Z,0
2017-11-13T05:38:21.063Z,0
2017-11-13T05:39:01.540Z,0
2017-11-13T05:39:41.934Z,0
2017-11-13T05:40:22.301Z,0
2017-11-13T05:41:02.705Z,0
2017-11-13T05:41:43.131Z,0
2017-11-13T05:42:23.579Z,0
2017-11-13T05:43:03.962Z,0
2017-11-13T05:43:44.457Z,0
2017-11-13T05:44:24.873Z,0
2017-11-13T05:45:05.461Z,0
2017-11-13T05:45:45.861Z,0
2017-11-13T05:46:26.349Z,0
2017-11-13T05:47:06.767Z,0
2017-11-13T05:47:47.206Z,0
2017-11-13T05:48:27.628Z,0
2017-11-13T05:49:08.089Z,0
2017-11-13T05:49:48.500Z,0
2017-11-13T05:50:28.996Z,0
2017-11-13T05:51:09.376Z,0
2017-11-13T05:51:49.816Z,0
2017-11-13T05:52:30.425Z,0
2017-11-13T05:53:10.708Z,0
2017-11-13T05:53:51.220Z,0
2017-11-13T05:54:31.638Z,0
2017-11-13T05:55:11.958Z,0
2017-11-13T05:55:52.466Z,0
2017-11-13T05:56:32.812Z,0
2017-11-13T05:57:13.357Z,0
2017-11-13T05:57:53.850Z,0
2017-11-13T05:58:34.188Z,0
2017-11-13T05:59:14.587Z,0
2017-11-13T05:59:55.198Z,0
2017-11-13T06:00:35.560Z,0
2017-11-13T06:01:16.078Z,0
2017-11-13T06:01:56.473Z,0
2017-11-13T06:02:37.201Z,0
2017-11-13T06:05:28.935Z,0
2017-11-13T06:06:26.807Z,0
2017-11-13T06:07:30.791Z,0
2017-11-13T06:08:34.011Z,0
2017-11-13T06:11:04.916Z,0
2017-11-13T06:11:46.065Z,0
2017-11-13T06:12:26.602Z,0
2017-11-13T06:13:07.527Z,0
2017-11-13T06:13:48.169Z,0
2017-11-13T06:14:28.936Z,0
2017-11-13T06:15:09.586Z,0
2017-11-13T06:15:50.464Z,0
2017-11-13T06:16:33.481Z,0
2017-11-13T06:17:14.530Z,0
2017-11-13T06:17:55.467Z,0
2017-11-13T06:18:36.719Z,0
2017-11-13T06:19:16.426Z,0
2017-11-13T06:19:57.338Z,0
2017-11-13T06:20:38.031Z,0
2017-11-13T06:21:18.731Z,0
2017-11-13T06:21:59.592Z,0
2017-11-13T06:22:39.946Z,0
2017-11-13T06:23:20.322Z,4
2017-11-13T06:24:00.786Z,4
2017-11-13T06:24:41.298Z,0
2017-11-13T06:25:21.722Z,4
2017-11-13T06:26:02.129Z,4
2017-11-13T06:26:42.688Z,4
2017-11-13T06:27:23.202Z,4
2017-11-13T06:28:03.658Z,8
2017-11-13T06:28:44.268Z,4
2017-11-13T06:29:24.594Z,4
2017-11-13T06:30:05.065Z,8
2017-11-13T06:30:45.462Z,8
2017-11-13T06:31:26.019Z,12
2017-11-13T06:32:06.450Z,12
2017-11-13T06:32:46.923Z,12
2017-11-13T06:33:27.277Z,12
2017-11-13T06:34:07.918Z,16
2017-11-13T06:34:48.328Z,16
2017-11-13T06:35:28.673Z,16
2017-11-13T06:36:09.282Z,20
2017-11-13T06:36:49.625Z,20
2017-11-13T06:37:31.387Z,16
2017-11-13T06:38:12.058Z,16
2017-11-13T06:38:53.530Z,16
2017-11-13T06:39:34.362Z,16
2017-11-13T06:40:14.815Z,16
2017-11-13T06:40:55.363Z,16
2017-11-13T06:41:36.757Z,20
2017-11-13T06:42:17.298Z,16
2017-11-13T06:42:57.684Z,16
2017-11-13T06:43:38.085Z,20
2017-11-13T06:44:18.624Z,20
2017-11-13T06:44:59.333Z,16
2017-11-13T06:45:40.062Z,20
2017-11-13T06:46:20.871Z,20
2017-11-13T06:47:01.175Z,20
2017-11-13T06:47:41.718Z,20
2017-11-13T06:48:22.637Z,20
2017-11-13T06:49:03.983Z,20
2017-11-13T06:49:44.892Z,20
2017-11-13T06:50:25.971Z,20
2017-11-13T06:51:06.301Z,20
2017-11-13T06:51:46.760Z,24
2017-11-13T06:52:27.408Z,20
2017-11-13T06:53:08.781Z,24
2017-11-13T06:53:49.326Z,24
2017-11-13T06:54:29.777Z,24
2017-11-13T06:55:10.264Z,32
2017-11-13T06:55:50.774Z,32
2017-11-13T06:56:31.455Z,32
2017-11-13T06:57:11.830Z,32
2017-11-13T06:57:52.495Z,32
2017-11-13T06:58:33.991Z,36
2017-11-13T06:59:14.516Z,40
2017-11-13T06:59:55.005Z,40
2017-11-13T07:00:35.657Z,44
2017-11-13T07:01:16.215Z,44
2017-11-13T07:01:56.835Z,44
2017-11-13T07:02:37.334Z,44
2017-11-13T07:03:17.986Z,44
2017-11-13T07:03:58.353Z,44
2017-11-13T07:04:38.786Z,40
2017-11-13T07:05:19.231Z,44
2017-11-13T07:05:59.697Z,48
2017-11-13T07:06:40.196Z,60
2017-11-13T07:07:20.716Z,68
2017-11-13T07:08:01.002Z,72
2017-11-13T07:08:41.485Z,84
2017-11-13T07:09:21.899Z,104
2017-11-13T07:10:02.372Z,128
2017-11-13T07:10:42.808Z,148
2017-11-13T07:11:23.313Z,168
2017-11-13T07:12:03.660Z,176
2017-11-13T07:12:44.162Z,180
2017-11-13T07:13:24.784Z,192
2017-11-13T07:14:05.282Z,208
2017-11-13T07:14:45.660Z,216
2017-11-13T07:15:26.133Z,228
2017-11-13T07:16:06.642Z,240
2017-11-13T07:16:47.318Z,244
2017-11-13T07:17:27.875Z,248
2017-11-13T07:18:08.663Z,240
2017-11-13T07:18:49.084Z,240
2017-11-13T07:19:29.577Z,244
2017-11-13T07:20:10.973Z,240
2017-11-13T07:20:51.854Z,236
2017-11-13T07:21:32.230Z,236
2017-11-13T07:22:13.111Z,240
2017-11-13T07:22:54.271Z,252
2017-11-13T07:23:34.957Z,256
2017-11-13T07:24:15.646Z,228
2017-11-13T07:24:56.182Z,216
2017-11-13T07:25:38.153Z,212
2017-11-13T07:26:18.199Z,216
2017-11-13T07:27:00.444Z,232
2017-11-13T07:27:40.980Z,240
2017-11-13T07:28:21.581Z,248
2017-11-13T07:29:02.919Z,244
2017-11-13T07:29:43.776Z,236
2017-11-13T07:30:24.212Z,236
2017-11-13T07:31:04.640Z,252
2017-11-13T07:33:56.083Z,220
2017-11-13T07:34:54.712Z,264
2017-11-13T07:35:50.655Z,324
2017-11-13T07:36:49.522Z,340
2017-11-13T07:39:51.323Z,376
2017-11-13T07:40:58.003Z,404
2017-11-13T07:41:52.758Z,396
2017-11-13T07:42:33.178Z,388
2017-11-13T07:43:14.643Z,356
2017-11-13T07:43:54.904Z,376
2017-11-13T07:44:35.360Z,392
2017-11-13T07:45:15.894Z,416
2017-11-13T07:45:56.981Z,456
2017-11-13T07:46:37.871Z,496
2017-11-13T07:47:18.219Z,472
2017-11-13T07:47:59.852Z,472
2017-11-13T07:48:40.182Z,508
2017-11-13T07:49:20.830Z,552
2017-11-13T07:50:02.397Z,600
2017-11-13T07:50:43.886Z,608
2017-11-13T07:51:25.878Z,592
2017-11-13T07:52:12.457Z,592
2017-11-13T07:53:05.836Z,568
2017-11-13T07:56:39.483Z,544
2017-11-13T07:59:18.384Z,648
2017-11-13T08:00:26.500Z,648
2017-11-13T08:01:29.414Z,668
2017-11-13T08:03:05.209Z,740
2017-11-13T08:04:18.796Z,780
2017-11-13T08:05:22.683Z,768
2017-11-13T08:10:36.648Z,888
2017-11-13T08:12:38.754Z,996
2017-11-13T08:13:54.539Z,980
2017-11-13T08:14:46.666Z,1028
2017-11-13T08:15:27.135Z,972
2017-11-13T08:20:59.593Z,1188
2017-11-13T08:21:40.876Z,1216
2017-11-13T08:22:22.331Z,1244
2017-11-13T08:23:03.570Z,1296
2017-11-13T08:23:44.239Z,1356
2017-11-13T08:24:25.604Z,1420
2017-11-13T08:25:06.677Z,1488
2017-11-13T08:25:47.598Z,1484
2017-11-13T08:26:31.160Z,1496
2017-11-13T08:27:14.268Z,1524
2017-11-13T08:27:54.491Z,1552
2017-11-13T08:28:36.125Z,1548
2017-11-13T08:29:17.592Z,1500
2017-11-13T08:29:58.073Z,1436
2017-11-13T08:30:39.150Z,1252
2017-11-13T08:31:20.172Z,1232
2017-11-13T08:32:01.407Z,1340
2017-11-13T08:32:42.859Z,1352
2017-11-13T08:35:10.547Z,1344
2017-11-13T08:35:50.796Z,1360
2017-11-13T08:36:31.279Z,1392
2017-11-13T08:37:11.705Z,1444
2017-11-13T08:37:55.033Z,1456
2017-11-13T08:38:36.492Z,1456
2017-11-13T08:39:21.200Z,1420
2017-11-13T08:41:45.297Z,1220
2017-11-13T08:42:50.997Z,1148
2017-11-13T08:43:48.620Z,1240
2017-11-13T08:44:52.571Z,1280
2017-11-13T08:45:58.669Z,1320
2017-11-13T08:46:56.161Z,1512
2017-11-13T08:47:53.852Z,1396
2017-11-13T08:48:56.775Z,1508
2017-11-13T08:51:49.273Z,1408
2017-11-13T08:52:59.667Z,1200
2017-11-13T08:54:02.949Z,1148
2017-11-13T08:55:06.671Z,1108
2017-11-13T08:57:53.394Z,1196
2017-11-13T08:59:00.155Z,1348
2017-11-13T09:01:47.162Z,1332
2017-11-13T09:02:36.836Z,1316
2017-11-13T09:05:17.113Z,1296
2017-11-13T09:06:01.401Z,1296
2017-11-13T09:06:41.942Z,1304
2017-11-13T09:07:22.511Z,1300
2017-11-13T09:08:05.526Z,1304
2017-11-13T09:08:46.624Z,1296
2017-11-13T09:09:27.510Z,1300
2017-11-13T09:10:09.052Z,1300
2017-11-13T09:10:49.493Z,1296
2017-11-13T09:11:30.157Z,1300
2017-11-13T09:12:10.814Z,1300
2017-11-13T09:12:51.776Z,1296
2017-11-13T09:13:32.173Z,1292
2017-11-13T09:14:12.723Z,1288
2017-11-13T09:14:54.411Z,1288
2017-11-13T09:15:38.556Z,1284
2017-11-13T09:16:19.510Z,1284
2017-11-13T09:17:00.196Z,1288
2017-11-13T09:17:47.837Z,1284
2017-11-13T09:18:29.257Z,1288
2017-11-13T09:19:09.179Z,1288
2017-11-13T09:19:49.673Z,1284
2017-11-13T09:20:30.345Z,1284
2017-11-13T09:21:10.920Z,1276
2017-11-13T09:21:51.324Z,1276
2017-11-13T09:22:42.910Z,1276
2017-11-13T09:23:32.513Z,1272
2017-11-13T09:24:25.546Z,1272
2017-11-13T09:25:24.714Z,1264
2017-11-13T09:26:06.308Z,1264
2017-11-13T09:28:30.643Z,1276
2017-11-13T09:29:14.770Z,1276
2017-11-13T09:29:56.260Z,1268
2017-11-13T09:30:36.982Z,1260
2017-11-13T09:31:17.845Z,1260
2017-11-13T09:31:58.425Z,1260
2017-11-13T09:32:39.000Z,1264
2017-11-13T09:33:19.763Z,1264
2017-11-13T09:35:41.601Z,1276
2017-11-13T09:36:22.028Z,1284
2017-11-13T09:37:02.406Z,1288
2017-11-13T09:37:42.954Z,1296
2017-11-13T09:38:25.045Z,1304
2017-11-13T09:39:05.328Z,1320
2017-11-13T09:39:46.308Z,1328
2017-11-13T09:40:26.808Z,1336
2017-11-13T09:41:08.306Z,1336
2017-11-13T09:41:48.774Z,1340
2017-11-13T09:42:29.226Z,1336
2017-11-13T09:43:10.384Z,1324
2017-11-13T09:43:51.829Z,1320
2017-11-13T09:44:33.119Z,1316
2017-11-13T09:45:14.228Z,1300
2017-11-13T09:45:55.568Z,1288
2017-11-13T09:46:36.470Z,1284
2017-11-13T09:47:17.841Z,1288
2017-11-13T09:47:59.497Z,1280
2017-11-13T09:48:40.604Z,1276
2017-11-13T09:49:21.501Z,1276
2017-11-13T09:50:02.963Z,1272
2017-11-13T09:50:44.687Z,1288
2017-11-13T09:51:25.514Z,1292
2017-11-13T09:52:06.332Z,1268
2017-11-13T09:52:46.941Z,1264
2017-11-13T09:53:27.895Z,1260
2017-11-13T09:54:08.607Z,1252
2017-11-13T09:54:48.894Z,1244
2017-11-13T09:55:30.395Z,1240
2017-11-13T09:56:14.628Z,1244
2017-11-13T09:56:55.495Z,1256
2017-11-13T09:57:36.627Z,1260
2017-11-13T09:58:17.394Z,1252
2017-11-13T09:58:57.978Z,1228
2017-11-13T09:59:39.406Z,1228
2017-11-13T10:00:20.213Z,1228
2017-11-13T10:01:00.916Z,1224
2017-11-13T10:01:43.579Z,1240
2017-11-13T10:02:23.188Z,1228
2017-11-13T10:03:04.419Z,1224
2017-11-13T10:43:02.676Z,1192
2017-11-13T10:43:44.342Z,1252
2017-11-13T10:44:25.358Z,1416
2017-11-13T10:45:06.069Z,1496
2017-11-13T10:45:46.535Z,1392
2017-11-13T10:46:27.166Z,1252
2017-11-13T10:47:08.608Z,1184
2017-11-13T10:47:49.038Z,1160
2017-11-13T10:48:29.645Z,1164
2017-11-13T10:49:10.202Z,1172
2017-11-13T10:49:51.050Z,1204
2017-11-13T10:50:31.935Z,1352
2017-11-13T10:51:13.744Z,1364
2017-11-13T10:51:54.500Z,1340
2017-11-13T10:52:35.533Z,1176
2017-11-13T10:53:20.982Z,1140
2017-11-13T10:54:06.089Z,1140
2017-11-13T10:54:44.141Z,1136
2017-11-13T10:55:28.792Z,932
2017-11-13T10:56:13.076Z,1212
2017-11-13T10:56:54.302Z,1300
2017-11-13T10:57:35.156Z,1316
2017-11-13T10:58:16.235Z,1380
2017-11-13T10:58:57.405Z,1248
2017-11-13T10:59:38.014Z,1188
2017-11-13T11:00:18.589Z,1168
2017-11-13T11:03:55.326Z,1196
2017-11-13T11:04:47.874Z,1176
2017-11-13T11:05:38.871Z,1132
2017-11-13T11:08:23.100Z,1120
2017-11-13T11:09:15.077Z,1136
2017-11-13T11:10:05.863Z,1096
2017-11-13T11:10:58.516Z,1196
2017-11-13T11:11:49.683Z,1128
2017-11-13T11:12:41.593Z,896
2017-11-13T11:13:33.467Z,1136
2017-11-13T11:14:23.020Z,1324
2017-11-13T11:15:15.391Z,1400
2017-11-13T11:16:04.282Z,1320
2017-11-13T11:16:55.734Z,1264
2017-11-13T11:17:44.751Z,1236
2017-11-13T11:18:36.947Z,1152
2017-11-13T11:19:27.040Z,1156
2017-11-13T11:20:16.474Z,1120
2017-11-13T11:21:02.373Z,1124
2017-11-13T11:24:34.158Z,1316
2017-11-13T11:25:15.534Z,1400
2017-11-13T11:25:55.467Z,1468
2017-11-13T11:26:36.190Z,1624
2017-11-13T11:27:18.641Z,1500
2017-11-13T11:27:59.074Z,1456
2017-11-13T11:28:39.589Z,1648
2017-11-13T11:29:20.261Z,1744
2017-11-13T11:30:00.524Z,1756
2017-11-13T11:30:41.600Z,1876
2017-11-13T11:31:21.956Z,1732
2017-11-13T11:32:02.962Z,1732
2017-11-13T11:32:43.882Z,1696
2017-11-13T11:33:26.302Z,1616
2017-11-13T11:34:06.705Z,1556
2017-11-13T11:34:47.463Z,1640
2017-11-13T11:35:28.262Z,1720
2017-11-13T11:36:10.667Z,1912
2017-11-13T11:36:54.064Z,1808
2017-11-13T11:37:34.640Z,1556
2017-11-13T11:38:15.556Z,1584
2017-11-13T11:38:56.189Z,1544
2017-11-13T11:39:38.614Z,1504
2017-11-13T11:40:20.488Z,1604
2017-11-13T11:41:00.629Z,1752
2017-11-13T11:41:41.916Z,1768
2017-11-13T11:42:22.837Z,1824
2017-11-13T11:43:04.002Z,1864
2017-11-13T11:43:45.019Z,1548
2017-11-13T11:44:25.882Z,1960
2017-11-13T11:45:07.065Z,2100
2017-11-13T11:45:51.002Z,2164
2017-11-13T11:46:31.105Z,2064
2017-11-13T11:47:12.802Z,1584
2017-11-13T11:47:54.517Z,1332
2017-11-13T11:48:36.548Z,1612
2017-11-13T11:49:17.321Z,1548
2017-11-13T11:49:58.126Z,1332
2017-11-13T11:50:38.758Z,1188
2017-11-13T11:51:20.093Z,960
2017-11-13T11:52:02.749Z,744
2017-11-13T11:52:43.805Z,792
2017-11-13T11:53:24.623Z,1032
2017-11-13T11:54:05.671Z,992
2017-11-13T11:54:46.251Z,1276
2017-11-13T11:55:27.284Z,1212
2017-11-13T11:56:07.689Z,852
2017-11-13T11:56:48.837Z,1004
2017-11-13T11:57:30.524Z,892
2017-11-13T11:58:12.546Z,796
2017-11-13T11:58:53.504Z,752
2017-11-13T11:59:41.342Z,700
2017-11-13T12:00:21.314Z,516
2017-11-13T12:01:02.182Z,600
2017-11-13T12:01:43.759Z,520
2017-11-13T12:02:24.439Z,452
2017-11-13T12:03:05.589Z,408